Time;durP1;ratioP1;P1;durP2;ratioP2;P2;SDS_P1;SDS_P2;PMS_P1;PMS_P2;Temp;Humidity;BMP_temperature;BMP_pressure;BME280_temperature;BME280_humidity;BME280_pressure;Samples;Min_cycle;Max_cycle;Signal;HPM_P1;HPM_P2
2022/03/21 00:01:39;;;;;;;;;;;7.50;99.90;;;;;;5096475;28;19998;-56
2022/03/21 00:04:04;;;;;;;;;;;7.50;99.90;;;;;;5095850;28;19918;-55
2022/03/21 00:06:30;;;;;;;;;;;7.50;99.90;;;;;;5095478;28;20325;-55
2022/03/21 00:08:55;;;;;;;;;;;7.50;99.90;;;;;;5095895;28;19908;-56
2022/03/21 00:11:21;;;;;;;;;;;7.50;99.90;;;;;;5096375;28;19938;-55
2022/03/21 00:13:49;;;;;;;;;;;7.50;99.90;;;;;;5095575;28;19919;-55
2022/03/21 00:16:15;;;;;;;;;;;7.50;99.90;;;;;;5095811;28;19950;-56
2022/03/21 00:18:41;;;;;;;;;;;7.50;99.90;;;;;;5096095;28;19940;-55
2022/03/21 00:21:06;;;;;;;;;;;7.50;99.90;;;;;;5095165;28;19912;-55
2022/03/21 00:23:32;;;;;;;;;;;7.50;99.90;;;;;;5095915;28;20514;-55
2022/03/21 00:25:58;;;;;;;;;;;7.50;99.90;;;;;;5094997;28;19912;-55
2022/03/21 00:28:24;;;;;;;;;;;7.50;99.90;;;;;;5095695;28;20263;-56
2022/03/21 00:30:49;;;;;;;;;;;7.50;99.90;;;;;;5095638;28;19912;-55
2022/03/21 00:33:15;;;;;;;;;;;7.50;99.90;;;;;;5095037;28;20286;-56
2022/03/21 00:35:42;;;;;;;;;;;7.50;99.90;;;;;;5095761;28;20065;-55
2022/03/21 00:38:11;;;;;;;;;;;7.50;99.90;;;;;;5095371;28;20335;-56
2022/03/21 00:40:36;;;;;;;;;;;7.50;99.90;;;;;;5095034;28;19999;-55
2022/03/21 00:43:03;;;;;;;;;;;7.40;99.90;;;;;;5095260;28;19970;-56
2022/03/21 00:45:28;;;;;;;;;;;7.40;99.90;;;;;;5095676;28;19954;-55
2022/03/21 00:47:54;;;;;;;;;;;7.40;99.90;;;;;;5094848;28;19916;-55
2022/03/21 00:50:21;;;;;;;;;;;7.40;99.90;;;;;;5095411;28;19915;-56
2022/03/21 00:52:48;;;;;;;;;;;7.40;99.90;;;;;;5095527;28;20002;-56
2022/03/21 00:55:14;;;;;;;;;;;7.40;99.90;;;;;;5094317;28;19934;-55
2022/03/21 00:57:40;;;;;;;;;;;7.40;99.90;;;;;;5095117;28;20458;-55
2022/03/21 01:00:12;;;;;;;;;;;7.40;99.90;;;;;;5095054;28;19914;-55
2022/03/21 01:02:38;;;;;;;;;;;7.40;99.90;;;;;;5094653;28;20306;-55
2022/03/21 01:05:03;;;;;;;;;;;7.40;99.90;;;;;;5094950;28;20003;-55
2022/03/21 01:07:29;;;;;;;;;;;7.40;99.90;;;;;;5095356;28;19908;-55
2022/03/21 01:09:55;;;;;;;;;;;7.40;99.90;;;;;;5094279;28;19987;-55
2022/03/21 01:12:20;;;;;;;;;;;7.40;99.90;;;;;;5095032;28;19908;-55
2022/03/21 01:14:46;;;;;;;;;;;7.40;99.90;;;;;;5094988;28;19923;-56
2022/03/21 01:17:11;;;;;;;;;;;7.40;99.90;;;;;;5094101;28;19981;-55
2022/03/21 01:19:37;;;;;;;;;;;7.40;99.90;;;;;;5095005;28;20282;-56
2022/03/21 01:22:06;;;;;;;;;;;7.40;99.90;;;;;;5094587;28;20259;-55
2022/03/21 01:24:32;;;;;;;;;;;7.40;99.90;;;;;;5094391;28;19915;-56
2022/03/21 01:26:57;;;;;;;;;;;7.30;99.90;;;;;;5094486;28;19927;-55
2022/03/21 01:29:22;;;;;;;;;;;7.30;99.90;;;;;;5094015;28;19912;-56
2022/03/21 01:31:48;;;;;;;;;;;7.30;99.90;;;;;;5094346;28;19937;-55
2022/03/21 01:34:13;;;;;;;;;;;7.20;99.90;;;;;;5094317;28;20031;-56
2022/03/21 01:36:39;;;;;;;;;;;7.20;99.90;;;;;;5094242;28;20368;-55
2022/03/21 01:39:04;;;;;;;;;;;7.20;99.90;;;;;;5094171;28;19948;-55
2022/03/21 01:41:30;;;;;;;;;;;7.10;99.90;;;;;;5094586;28;19931;-55
2022/03/21 01:43:56;;;;;;;;;;;7.10;99.90;;;;;;5093571;28;19955;-56
2022/03/21 01:46:22;;;;;;;;;;;7.10;99.90;;;;;;5094338;28;19912;-56
2022/03/21 01:48:47;;;;;;;;;;;7.10;99.90;;;;;;5094358;28;19908;-55
2022/03/21 01:51:14;;;;;;;;;;;7.10;99.90;;;;;;5093500;28;19918;-56
2022/03/21 01:56:23;;;;;;;;;;;7.00;99.90;;;;;;5094627;28;20371;-56
2022/03/21 01:58:49;;;;;;;;;;;7.00;99.90;;;;;;5093271;28;19909;-56
2022/03/21 02:01:14;;;;;;;;;;;7.00;99.90;;;;;;5093846;28;19916;-56
2022/03/21 02:03:40;;;;;;;;;;;7.00;99.90;;;;;;5094121;28;19958;-55
2022/03/21 02:06:05;;;;;;;;;;;6.90;99.90;;;;;;5092951;28;19908;-56
2022/03/21 02:08:31;;;;;;;;;;;6.90;99.90;;;;;;5093542;28;19912;-55
2022/03/21 02:10:56;;;;;;;;;;;6.90;99.90;;;;;;5093587;28;19908;-56
2022/03/21 02:13:22;;;;;;;;;;;6.90;99.90;;;;;;5093070;28;19908;-55
2022/03/21 02:15:47;;;;;;;;;;;6.90;99.90;;;;;;5093903;28;20333;-56
2022/03/21 02:18:16;;;;;;;;;;;6.80;99.90;;;;;;5093576;28;19938;-55
2022/03/21 02:20:42;;;;;;;;;;;6.80;99.90;;;;;;5093397;28;20010;-55
2022/03/21 02:23:20;;;;;;;;;;;6.80;99.90;;;;;;5093370;28;19908;-56
2022/03/21 02:25:46;;;;;;;;;;;6.70;99.90;;;;;;5093061;28;19912;-55
2022/03/21 02:28:14;;;;;;;;;;;6.70;99.90;;;;;;5091949;28;20347;-56
2022/03/21 02:30:41;;;;;;;;;;;6.70;99.90;;;;;;5092745;28;19912;-56
2022/03/21 02:33:07;;;;;;;;;;;6.70;99.90;;;;;;5092689;28;19916;-55
2022/03/21 02:35:33;;;;;;;;;;;6.70;99.90;;;;;;5093523;28;19916;-56
2022/03/21 02:37:59;;;;;;;;;;;6.70;99.90;;;;;;5075277;28;19908;-55
2022/03/21 02:40:25;;;;;;;;;;;6.70;99.90;;;;;;5092507;28;20354;-55
2022/03/21 02:42:50;;;;;;;;;;;6.70;99.90;;;;;;5092922;28;19919;-55
2022/03/21 02:45:16;;;;;;;;;;;6.60;99.90;;;;;;5092923;28;19919;-56
2022/03/21 02:47:42;;;;;;;;;;;6.60;99.90;;;;;;5093019;28;19957;-56
2022/03/21 02:50:08;;;;;;;;;;;6.60;99.90;;;;;;5092887;28;19909;-55
2022/03/21 02:52:34;;;;;;;;;;;6.50;99.90;;;;;;5093251;28;19908;-55
2022/03/21 02:55:00;;;;;;;;;;;6.50;99.90;;;;;;5092293;28;19923;-56
2022/03/21 02:57:26;;;;;;;;;;;6.50;99.90;;;;;;5092955;28;19935;-55
2022/03/21 02:59:52;;;;;;;;;;;6.50;99.90;;;;;;5093216;28;19931;-55
2022/03/21 03:02:17;;;;;;;;;;;6.40;99.90;;;;;;5092423;28;20355;-55
2022/03/21 03:04:42;;;;;;;;;;;6.30;99.90;;;;;;5092188;28;20369;-56
2022/03/21 03:07:08;;;;;;;;;;;6.30;99.90;;;;;;5092660;28;19971;-56
2022/03/21 03:09:33;;;;;;;;;;;6.20;99.90;;;;;;5092740;28;19908;-55
2022/03/21 03:12:00;;;;;;;;;;;6.20;99.90;;;;;;5092779;28;20442;-55
2022/03/21 03:14:25;;;;;;;;;;;6.10;99.90;;;;;;5092840;28;19930;-55
2022/03/21 03:16:51;;;;;;;;;;;6.10;99.90;;;;;;5092478;28;19916;-56
2022/03/21 03:19:16;;;;;;;;;;;6.00;99.90;;;;;;5092630;28;20322;-56
2022/03/21 03:21:44;;;;;;;;;;;5.90;99.90;;;;;;5092717;28;20240;-55
2022/03/21 03:24:10;;;;;;;;;;;5.80;99.90;;;;;;5092477;28;19915;-55
2022/03/21 03:26:36;;;;;;;;;;;5.80;99.90;;;;;;5092892;28;19908;-56
2022/03/21 03:29:01;;;;;;;;;;;5.70;99.90;;;;;;5090989;28;20359;-55
2022/03/21 03:31:27;;;;;;;;;;;5.70;99.90;;;;;;5092532;28;19976;-55
2022/03/21 03:33:52;;;;;;;;;;;5.60;99.90;;;;;;5092779;28;19919;-56
2022/03/21 03:36:18;;;;;;;;;;;5.60;99.90;;;;;;5091728;28;19966;-56
2022/03/21 03:38:44;;;;;;;;;;;5.60;99.90;;;;;;5092767;28;19947;-55
2022/03/21 03:41:10;;;;;;;;;;;5.50;99.90;;;;;;5092404;28;20006;-56
2022/03/21 03:43:36;;;;;;;;;;;5.40;99.90;;;;;;5092325;28;20367;-55
2022/03/21 03:46:02;;;;;;;;;;;5.40;99.90;;;;;;5092393;28;19908;-55
2022/03/21 03:48:28;;;;;;;;;;;5.40;99.90;;;;;;5092761;28;19908;-55
2022/03/21 03:50:53;;;;;;;;;;;5.30;99.90;;;;;;5092059;28;19912;-56
2022/03/21 03:53:19;;;;;;;;;;;5.30;99.90;;;;;;5092271;28;20283;-55
2022/03/21 03:55:44;;;;;;;;;;;5.30;99.90;;;;;;5092788;28;19994;-55
2022/03/21 03:58:10;;;;;;;;;;;5.20;99.90;;;;;;5091357;28;19966;-56
2022/03/21 04:00:36;;;;;;;;;;;5.20;99.90;;;;;;5092653;28;19912;-56
2022/03/21 04:05:46;;;;;;;;;;;5.20;99.90;;;;;;5091739;28;19930;-55
2022/03/21 04:08:11;;;;;;;;;;;5.10;99.90;;;;;;5092126;28;19913;-55
2022/03/21 04:10:37;;;;;;;;;;;5.10;99.90;;;;;;5092465;28;19909;-55
2022/03/21 04:13:03;;;;;;;;;;;5.00;99.90;;;;;;5091738;28;19916;-55
2022/03/21 04:15:28;;;;;;;;;;;5.00;99.90;;;;;;5093158;28;19917;-56
2022/03/21 04:17:57;;;;;;;;;;;4.90;99.90;;;;;;5095879;28;19912;-56
2022/03/21 04:20:23;;;;;;;;;;;4.90;99.90;;;;;;5095825;28;19969;-55
2022/03/21 04:22:48;;;;;;;;;;;4.90;99.90;;;;;;5096155;28;19912;-55
2022/03/21 04:25:14;;;;;;;;;;;4.90;99.90;;;;;;5095232;28;19976;-55
2022/03/21 04:27:39;;;;;;;;;;;4.80;99.90;;;;;;5095845;28;19915;-56
2022/03/21 04:30:05;;;;;;;;;;;4.90;99.90;;;;;;5095699;28;19915;-55
2022/03/21 04:32:31;;;;;;;;;;;4.90;99.90;;;;;;5095061;28;19920;-55
2022/03/21 04:34:56;;;;;;;;;;;4.80;99.90;;;;;;5095420;28;19916;-55
2022/03/21 04:37:21;;;;;;;;;;;4.80;99.90;;;;;;5095480;28;19912;-55
2022/03/21 04:39:47;;;;;;;;;;;4.80;99.90;;;;;;5095067;28;19912;-55
2022/03/21 04:42:13;;;;;;;;;;;4.80;99.90;;;;;;5095263;28;20351;-55
2022/03/21 04:44:39;;;;;;;;;;;4.70;99.90;;;;;;5095697;28;19912;-55
2022/03/21 04:47:08;;;;;;;;;;;4.60;99.90;;;;;;5094818;28;19908;-55
2022/03/21 04:49:34;;;;;;;;;;;4.60;99.90;;;;;;5095572;28;19973;-56
2022/03/21 04:51:59;;;;;;;;;;;4.60;99.90;;;;;;5095177;28;19912;-55
2022/03/21 04:54:27;;;;;;;;;;;4.60;99.90;;;;;;5094865;28;20003;-55
2022/03/21 04:56:52;;;;;;;;;;;4.50;99.90;;;;;;5094946;28;19935;-55
2022/03/21 04:59:17;;;;;;;;;;;4.50;99.90;;;;;;5094827;28;20359;-55
2022/03/21 05:01:43;;;;;;;;;;;4.50;99.90;;;;;;5094741;28;20330;-56
2022/03/21 05:04:08;;;;;;;;;;;4.40;99.90;;;;;;5094919;28;19915;-55
2022/03/21 05:06:34;;;;;;;;;;;4.30;99.90;;;;;;5095186;28;19912;-55
2022/03/21 05:09:03;;;;;;;;;;;4.30;99.90;;;;;;5094198;28;19908;-55
2022/03/21 05:11:29;;;;;;;;;;;4.30;99.90;;;;;;5095041;28;19915;-56
2022/03/21 05:13:54;;;;;;;;;;;4.30;99.90;;;;;;5094932;28;19912;-56
2022/03/21 05:16:20;;;;;;;;;;;4.30;99.90;;;;;;5094226;28;19973;-56
2022/03/21 05:18:45;;;;;;;;;;;4.20;99.90;;;;;;5094750;28;20255;-55
2022/03/21 05:21:10;;;;;;;;;;;4.20;99.90;;;;;;5094695;28;20252;-55
2022/03/21 05:31:48;;;;;;;;;;;3.90;99.90;;;;;;5094703;28;19974;-55
2022/03/21 05:36:58;;;;;;;;;;;3.80;99.90;;;;;;5094186;28;19973;-56
2022/03/21 05:39:24;;;;;;;;;;;3.70;99.90;;;;;;5076029;28;19913;-56
2022/03/21 05:41:52;;;;;;;;;;;3.60;99.90;;;;;;5093931;28;20229;-55
2022/03/21 05:44:18;;;;;;;;;;;3.50;99.90;;;;;;5092868;28;20433;-55
2022/03/21 05:46:43;;;;;;;;;;;3.40;99.90;;;;;;5093221;28;20008;-55
2022/03/21 05:49:09;;;;;;;;;;;3.30;99.90;;;;;;5092879;28;19912;-55
2022/03/21 05:51:36;;;;;;;;;;;3.10;99.90;;;;;;5093141;28;19908;-56
2022/03/21 05:54:03;;;;;;;;;;;3.00;99.90;;;;;;5093081;28;19912;-54
2022/03/21 05:56:28;;;;;;;;;;;2.90;99.90;;;;;;5093071;28;19912;-56
2022/03/21 05:58:54;;;;;;;;;;;2.70;99.90;;;;;;5093317;28;19908;-55
2022/03/21 06:01:23;;;;;;;;;;;2.70;99.90;;;;;;5093433;28;19931;-55
2022/03/21 06:03:53;;;;;;;;;;;2.60;99.90;;;;;;5093022;28;19982;-55
2022/03/21 06:06:22;;;;;;;;;;;2.50;99.90;;;;;;5092742;28;19958;-56
2022/03/21 06:08:49;;;;;;;;;;;2.50;99.90;;;;;;5093058;28;20374;-55
2022/03/21 06:11:14;;;;;;;;;;;2.40;99.90;;;;;;5092596;28;19928;-55
2022/03/21 06:13:42;;;;;;;;;;;2.40;99.90;;;;;;5093208;28;19913;-55
2022/03/21 06:16:08;;;;;;;;;;;2.40;99.90;;;;;;5092859;28;20361;-55
2022/03/21 06:18:33;;;;;;;;;;;2.50;99.90;;;;;;5092573;28;19908;-55
2022/03/21 06:20:59;;;;;;;;;;;2.40;99.90;;;;;;5092752;28;19916;-55
2022/03/21 06:23:25;;;;;;;;;;;2.50;99.90;;;;;;5092918;28;19908;-55
2022/03/21 06:25:53;;;;;;;;;;;2.60;99.90;;;;;;5091946;28;19912;-55
2022/03/21 06:28:22;;;;;;;;;;;2.70;99.90;;;;;;5095982;28;19919;-55
2022/03/21 06:30:50;;;;;;;;;;;2.80;99.90;;;;;;5092695;28;20260;-55
2022/03/21 06:33:16;;;;;;;;;;;2.80;99.90;;;;;;5092911;28;19912;-55
2022/03/21 06:35:41;;;;;;;;;;;2.80;99.90;;;;;;5092982;28;20263;-55
2022/03/21 06:38:06;;;;;;;;;;;2.90;99.90;;;;;;5103965;28;20358;-55
2022/03/21 06:40:33;;;;;;;;;;;3.00;99.90;;;;;;5113294;28;19908;-55
2022/03/21 06:42:59;;;;;;;;;;;3.10;99.90;;;;;;5095332;28;19908;-55
2022/03/21 06:45:24;;;;;;;;;;;3.20;99.90;;;;;;5093055;28;19916;-54
2022/03/21 06:47:49;;;;;;;;;;;3.30;99.90;;;;;;5091350;28;19995;-55
2022/03/21 06:50:15;;;;;;;;;;;3.40;99.90;;;;;;5091633;28;20002;-55
2022/03/21 06:52:40;;;;;;;;;;;3.50;99.90;;;;;;5092010;28;19954;-55
2022/03/21 06:55:06;;;;;;;;;;;3.50;99.90;;;;;;5092057;28;19916;-56
2022/03/21 06:57:32;;;;;;;;;;;3.60;99.90;;;;;;5091969;28;19915;-55
2022/03/21 06:59:57;;;;;;;;;;;3.70;99.90;;;;;;5091140;28;19908;-56
2022/03/21 07:02:23;;;;;;;;;;;3.70;99.90;;;;;;5091835;28;19960;-55
2022/03/21 07:04:48;;;;;;;;;;;3.80;99.90;;;;;;5091130;28;20355;-55
2022/03/21 07:07:14;;;;;;;;;;;3.90;99.90;;;;;;5090387;28;19966;-55
2022/03/21 07:09:39;;;;;;;;;;;4.10;99.90;;;;;;5091281;28;19950;-55
2022/03/21 07:12:05;;;;;;;;;;;4.20;99.90;;;;;;5091129;28;20283;-55
2022/03/21 07:14:30;;;;;;;;;;;4.30;99.90;;;;;;5072427;28;20275;-55
2022/03/21 07:16:56;;;;;;;;;;;4.40;99.90;;;;;;5090941;28;20381;-55
2022/03/21 07:19:21;;;;;;;;;;;4.60;99.90;;;;;;5091318;28;20418;-55
2022/03/21 07:21:47;;;;;;;;;;;4.70;99.90;;;;;;5090598;28;19919;-55
2022/03/21 07:24:13;;;;;;;;;;;4.90;99.90;;;;;;5090633;28;19915;-55
2022/03/21 07:26:38;;;;;;;;;;;5.00;99.90;;;;;;5091167;28;19912;-56
2022/03/21 07:29:04;;;;;;;;;;;5.20;99.90;;;;;;5090505;28;20256;-55
2022/03/21 07:31:30;;;;;;;;;;;5.30;99.90;;;;;;5090769;28;20525;-56
2022/03/21 07:33:56;;;;;;;;;;;5.40;99.90;;;;;;5090713;28;20012;-56
2022/03/21 07:36:21;;;;;;;;;;;5.60;99.90;;;;;;5090747;28;19908;-55
2022/03/21 07:38:47;;;;;;;;;;;5.80;99.90;;;;;;5091039;28;20351;-56
2022/03/21 07:41:12;;;;;;;;;;;5.90;99.90;;;;;;5090525;28;19919;-55
2022/03/21 07:43:38;;;;;;;;;;;6.10;99.90;;;;;;5090615;28;19915;-56
2022/03/21 07:48:48;;;;;;;;;;;6.40;99.90;;;;;;5090638;28;19930;-56
2022/03/21 07:51:14;;;;;;;;;;;6.60;99.90;;;;;;5089855;28;20846;-55
2022/03/21 07:53:40;;;;;;;;;;;6.80;99.90;;;;;;5095055;28;20428;-56
2022/03/21 07:56:06;;;;;;;;;;;6.90;99.90;;;;;;5094076;28;19915;-55
2022/03/21 07:58:31;;;;;;;;;;;7.10;99.90;;;;;;5094817;28;19908;-55
2022/03/21 08:00:58;;;;;;;;;;;7.20;99.90;;;;;;5094512;28;19908;-55
2022/03/21 08:03:24;;;;;;;;;;;7.30;99.90;;;;;;5093990;28;20434;-56
2022/03/21 08:05:49;;;;;;;;;;;7.40;99.90;;;;;;5094558;28;20007;-55
2022/03/21 08:08:15;;;;;;;;;;;7.50;99.90;;;;;;5094437;28;20003;-56
2022/03/21 08:10:41;;;;;;;;;;;7.70;99.90;;;;;;5094358;28;19912;-56
2022/03/21 08:13:08;;;;;;;;;;;7.80;99.90;;;;;;5095200;28;19984;-55
2022/03/21 08:15:35;;;;;;;;;;;7.90;99.90;;;;;;5096260;28;20402;-56
2022/03/21 08:18:03;;;;;;;;;;;8.00;99.90;;;;;;5093736;28;19908;-55
2022/03/21 08:20:38;;;;;;;;;;;8.10;99.90;;;;;;5094346;28;19965;-56
2022/03/21 08:23:08;;;;;;;;;;;8.20;99.90;;;;;;5092793;28;19964;-56
2022/03/21 08:25:37;;;;;;;;;;;8.30;99.90;;;;;;5093109;28;19919;-56
2022/03/21 08:28:04;;;;;;;;;;;8.40;99.90;;;;;;5092907;28;19912;-55
2022/03/21 08:30:32;;;;;;;;;;;8.50;99.90;;;;;;5094129;28;19916;-55
2022/03/21 08:32:58;;;;;;;;;;;8.60;99.90;;;;;;5095816;28;19956;-56
2022/03/21 08:35:24;;;;;;;;;;;8.70;99.90;;;;;;5094258;28;19967;-55
2022/03/21 08:37:49;;;;;;;;;;;8.80;99.90;;;;;;5094443;28;19908;-56
2022/03/21 08:40:15;;;;;;;;;;;8.90;99.90;;;;;;5093748;28;19908;-56
2022/03/21 08:42:41;;;;;;;;;;;9.00;99.90;;;;;;5095318;28;19915;-56
2022/03/21 08:45:07;;;;;;;;;;;9.10;99.90;;;;;;5095271;28;20382;-55
2022/03/21 08:47:33;;;;;;;;;;;9.20;99.90;;;;;;5095227;28;19908;-56
2022/03/21 08:49:58;;;;;;;;;;;9.30;99.90;;;;;;5094320;28;20343;-55
2022/03/21 08:52:24;;;;;;;;;;;9.40;99.90;;;;;;5094138;28;19912;-55
2022/03/21 08:54:49;;;;;;;;;;;9.50;99.90;;;;;;5095752;28;19924;-56
2022/03/21 08:57:15;;;;;;;;;;;9.60;99.90;;;;;;5094912;28;19909;-56
2022/03/21 08:59:41;;;;;;;;;;;9.70;99.90;;;;;;5093507;28;19935;-55
2022/03/21 09:02:08;;;;;;;;;;;9.80;99.90;;;;;;5093125;28;20367;-55
2022/03/21 09:04:35;;;;;;;;;;;10.00;99.90;;;;;;5093093;28;19912;-56
2022/03/21 09:07:01;;;;;;;;;;;10.00;99.90;;;;;;5092417;28;19915;-55
2022/03/21 09:09:26;;;;;;;;;;;10.10;99.90;;;;;;5093932;28;19908;-55
2022/03/21 09:11:52;;;;;;;;;;;10.20;99.90;;;;;;5095531;28;19908;-56
2022/03/21 09:14:17;;;;;;;;;;;10.30;99.90;;;;;;5092594;28;19927;-56
2022/03/21 09:16:43;;;;;;;;;;;10.40;99.90;;;;;;5094500;28;19908;-56
2022/03/21 09:19:08;;;;;;;;;;;10.50;99.90;;;;;;5095363;28;20279;-55
2022/03/21 09:21:34;;;;;;;;;;;10.60;99.90;;;;;;5094813;28;20393;-56
2022/03/21 09:24:00;;;;;;;;;;;10.70;99.90;;;;;;5094556;28;20270;-56
2022/03/21 09:26:25;;;;;;;;;;;10.80;99.90;;;;;;5095161;28;20362;-56
2022/03/21 09:28:59;;;;;;;;;;;10.90;99.90;;;;;;5093583;28;20003;-56
2022/03/21 09:31:26;;;;;;;;;;;11.00;99.90;;;;;;5094633;28;19924;-56
2022/03/21 09:33:52;;;;;;;;;;;11.10;99.90;;;;;;5095101;28;19920;-56
2022/03/21 09:36:17;;;;;;;;;;;11.20;99.90;;;;;;5094597;28;19994;-56
2022/03/21 09:38:43;;;;;;;;;;;11.30;99.90;;;;;;5094674;28;19908;-56
2022/03/21 09:41:12;;;;;;;;;;;11.40;99.90;;;;;;5094504;28;20266;-56
2022/03/21 09:43:39;;;;;;;;;;;11.40;99.90;;;;;;5094094;28;19912;-56
2022/03/21 09:46:06;;;;;;;;;;;11.50;99.90;;;;;;5094651;28;20326;-55
2022/03/21 09:48:33;;;;;;;;;;;11.70;99.90;;;;;;5094579;28;19999;-55
2022/03/21 09:50:59;;;;;;;;;;;11.80;99.90;;;;;;5094712;28;19908;-56
2022/03/21 09:53:25;;;;;;;;;;;11.90;99.90;;;;;;5094381;28;19912;-56
2022/03/21 09:55:51;;;;;;;;;;;12.00;99.90;;;;;;5094038;28;20010;-56
2022/03/21 09:58:16;;;;;;;;;;;12.10;99.90;;;;;;5094124;28;19962;-55
2022/03/21 10:00:43;;;;;;;;;;;12.20;99.90;;;;;;5094408;28;19976;-56
2022/03/21 10:03:09;;;;;;;;;;;12.30;99.90;;;;;;5094328;28;19916;-55
2022/03/21 10:05:39;;;;;;;;;;;12.40;99.90;;;;;;5094448;28;19919;-56
2022/03/21 10:08:10;;;;;;;;;;;12.50;99.90;;;;;;5094114;28;19908;-56
2022/03/21 10:10:36;;;;;;;;;;;12.60;99.90;;;;;;5093881;28;19908;-56
2022/03/21 10:13:02;;;;;;;;;;;12.70;99.90;;;;;;5092812;28;19972;-56
2022/03/21 10:15:28;;;;;;;;;;;12.80;99.90;;;;;;5094221;28;19916;-55
2022/03/21 10:18:10;;;;;;;;;;;12.90;99.90;;;;;;5091880;28;19908;-56
2022/03/21 10:20:36;;;;;;;;;;;13.00;99.90;;;;;;5093853;28;19915;-56
2022/03/21 10:23:18;;;;;;;;;;;13.00;98.80;;;;;;5094207;28;20324;-56
2022/03/21 10:25:44;;;;;;;;;;;13.10;99.10;;;;;;5093441;28;19908;-56
2022/03/21 10:28:10;;;;;;;;;;;13.20;97.10;;;;;;5094197;28;19915;-56
2022/03/21 10:30:41;;;;;;;;;;;13.30;95.60;;;;;;5094092;28;19912;-56
2022/03/21 10:33:07;;;;;;;;;;;13.30;99.90;;;;;;5093473;28;19920;-56
2022/03/21 10:35:43;;;;;;;;;;;13.40;99.90;;;;;;5093874;28;19923;-56
2022/03/21 10:38:08;;;;;;;;;;;13.60;99.90;;;;;;5093169;28;20387;-56
2022/03/21 10:40:36;;;;;;;;;;;13.70;97.30;;;;;;5093454;28;19987;-55
2022/03/21 10:43:09;;;;;;;;;;;13.70;86.70;;;;;;5093530;28;19912;-56
2022/03/21 10:45:35;;;;;;;;;;;13.70;92.70;;;;;;5093058;28;19919;-56
2022/03/21 10:48:01;;;;;;;;;;;13.70;94.80;;;;;;5093620;28;19908;-56
2022/03/21 10:50:31;;;;;;;;;;;13.80;95.60;;;;;;5093305;28;19915;-56
2022/03/21 10:53:04;;;;;;;;;;;13.80;94.70;;;;;;5093106;28;19919;-56
2022/03/21 10:55:29;;;;;;;;;;;14.00;97.30;;;;;;5093634;28;19916;-55
2022/03/21 10:57:55;;;;;;;;;;;14.10;97.40;;;;;;5093329;28;20367;-55
2022/03/21 11:00:22;;;;;;;;;;;14.00;85.60;;;;;;5092876;28;20347;-55
2022/03/21 11:02:47;;;;;;;;;;;14.10;71.70;;;;;;5093303;28;19912;-56
2022/03/21 11:05:13;;;;;;;;;;;14.20;95.10;;;;;;5093447;28;19916;-56
2022/03/21 11:07:38;;;;;;;;;;;14.40;92.90;;;;;;5092984;28;20345;-56
2022/03/21 11:10:04;;;;;;;;;;;14.50;91.30;;;;;;5093568;28;20347;-56
2022/03/21 11:12:29;;;;;;;;;;;14.70;89.60;;;;;;5093339;28;19915;-55
2022/03/21 11:14:55;;;;;;;;;;;14.70;82.10;;;;;;5092665;28;19920;-55
2022/03/21 11:17:21;;;;;;;;;;;14.70;80.10;;;;;;5093368;28;19920;-56
2022/03/21 11:19:46;;;;;;;;;;;14.70;83.40;;;;;;5092844;28;19908;-55
2022/03/21 11:22:12;;;;;;;;;;;14.70;87.70;;;;;;5093166;28;19912;-55
2022/03/21 11:24:39;;;;;;;;;;;14.70;70.30;;;;;;5092925;28;20275;-56
2022/03/21 11:27:34;;;;;;;;;;;14.80;77.50;;;;;;5096490;28;19908;-56
2022/03/21 11:30:03;;;;;;;;;;;14.90;92.20;;;;;;5023881;28;19920;-56
2022/03/21 11:32:41;;;;;;;;;;;15.00;85.20;;;;;;5097173;28;19920;-56
2022/03/21 11:35:09;;;;;;;;;;;15.20;70.90;;;;;;5096741;28;19999;-56
2022/03/21 11:37:35;;;;;;;;;;;15.30;79.70;;;;;;5097314;28;19963;-56
2022/03/21 11:40:19;;;;;;;;;;;15.50;88.20;;;;;;5097247;28;19937;-56
2022/03/21 11:42:44;;;;;;;;;;;15.60;80.40;;;;;;5096535;28;20382;-55
2022/03/21 11:45:26;;;;;;;;;;;15.70;73.10;;;;;;5097163;28;19912;-56
2022/03/21 11:48:10;;;;;;;;;;;15.80;77.10;;;;;;5097196;28;19916;-56
2022/03/21 11:50:36;;;;;;;;;;;15.90;68.00;;;;;;5096601;28;20003;-55
2022/03/21 11:53:11;;;;;;;;;;;16.00;76.10;;;;;;5097197;28;20319;-56
2022/03/21 11:55:37;;;;;;;;;;;16.00;68.20;;;;;;5096434;28;20011;-56
2022/03/21 11:58:21;;;;;;;;;;;15.90;64.00;;;;;;5097056;28;20003;-55
2022/03/21 12:01:05;;;;;;;;;;;15.90;67.50;;;;;;5096925;28;20477;-55
2022/03/21 12:03:31;;;;;;;;;;;16.00;69.90;;;;;;5096706;28;19908;-55
2022/03/21 12:05:57;;;;;;;;;;;16.00;59.00;;;;;;5096939;28;19919;-55
2022/03/21 12:08:32;;;;;;;;;;;16.20;60.80;;;;;;5097159;28;19954;-55
2022/03/21 12:10:58;;;;;;;;;;;16.20;60.80;;;;;;5096285;28;19950;-55
2022/03/21 12:13:23;;;;;;;;;;;16.30;64.20;;;;;;5096538;28;19948;-55
2022/03/21 12:15:51;;;;;;;;;;;16.40;59.70;;;;;;5096720;28;19916;-55
2022/03/21 12:18:19;;;;;;;;;;;16.40;62.40;;;;;;5096397;28;19943;-55
2022/03/21 12:20:46;;;;;;;;;;;16.40;56.40;;;;;;5096415;28;20271;-55
2022/03/21 12:23:18;;;;;;;;;;;16.40;59.70;;;;;;5096325;28;20255;-55
2022/03/21 12:25:48;;;;;;;;;;;16.50;65.10;;;;;;5096377;28;19912;-55
2022/03/21 12:28:16;;;;;;;;;;;16.60;55.70;;;;;;5096843;28;19931;-56
2022/03/21 12:30:42;;;;;;;;;;;16.70;56.50;;;;;;5095954;28;20351;-56
2022/03/21 12:33:12;;;;;;;;;;;16.80;59.10;;;;;;5096523;28;19963;-55
2022/03/21 12:35:44;;;;;;;;;;;16.90;63.60;;;;;;5096128;28;19919;-55
2022/03/21 12:38:12;;;;;;;;;;;16.90;59.60;;;;;;5095621;28;19912;-55
2022/03/21 12:40:46;;;;;;;;;;;17.00;62.30;;;;;;5092162;28;19916;-55
2022/03/21 12:43:13;;;;;;;;;;;16.90;57.90;;;;;;5094894;28;19916;-55
2022/03/21 12:45:38;;;;;;;;;;;16.90;58.90;;;;;;5095665;28;19915;-55
2022/03/21 12:48:05;;;;;;;;;;;17.00;57.60;;;;;;5095977;28;20259;-55
2022/03/21 12:50:31;;;;;;;;;;;17.10;57.50;;;;;;5096096;28;19953;-55
2022/03/21 12:52:58;;;;;;;;;;;17.30;57.50;;;;;;5095343;28;19998;-55
2022/03/21 12:55:24;;;;;;;;;;;17.30;55.30;;;;;;5096131;28;19977;-55
2022/03/21 12:57:54;;;;;;;;;;;17.40;56.40;;;;;;5096065;28;19908;-55
2022/03/21 13:00:21;;;;;;;;;;;17.50;57.20;;;;;;5095192;28;19912;-55
2022/03/21 13:02:47;;;;;;;;;;;17.50;54.50;;;;;;5096046;28;19917;-56
2022/03/21 13:10:43;;;;;;;;;;;18.00;56.20;;;;;;5096006;28;19931;-56
2022/03/21 13:13:08;;;;;;;;;;;18.00;53.20;;;;;;5094560;28;19954;-55
2022/03/21 13:15:35;;;;;;;;;;;18.00;54.10;;;;;;5095502;28;19920;-55
2022/03/21 13:18:03;;;;;;;;;;;18.00;54.00;;;;;;5095382;28;19916;-55
2022/03/21 13:20:33;;;;;;;;;;;18.00;53.30;;;;;;5094888;28;19909;-55
2022/03/21 13:23:00;;;;;;;;;;;18.20;54.20;;;;;;5095332;28;20002;-55
2022/03/21 13:25:26;;;;;;;;;;;18.40;55.60;;;;;;5095087;28;19912;-56
2022/03/21 13:28:04;;;;;;;;;;;18.80;58.30;;;;;;5094709;28;19908;-56
2022/03/21 13:30:29;;;;;;;;;;;19.00;57.70;;;;;;5095261;28;19908;-56
2022/03/21 13:32:55;;;;;;;;;;;19.10;53.70;;;;;;5094606;28;19977;-56
2022/03/21 13:35:20;;;;;;;;;;;19.30;57.20;;;;;;5094560;28;19916;-55
2022/03/21 13:37:58;;;;;;;;;;;19.50;52.60;;;;;;5094996;28;19954;-56
2022/03/21 13:40:27;;;;;;;;;;;19.40;50.80;;;;;;5095047;28;19966;-56
2022/03/21 13:42:53;;;;;;;;;;;19.70;55.50;;;;;;5094340;28;19945;-56
2022/03/21 13:45:18;;;;;;;;;;;19.80;51.20;;;;;;5095079;28;19908;-55
2022/03/21 13:47:47;;;;;;;;;;;19.90;51.20;;;;;;5093783;28;19915;-55
2022/03/21 13:50:12;;;;;;;;;;;20.00;49.30;;;;;;5094791;28;19909;-56
2022/03/21 13:52:38;;;;;;;;;;;20.20;53.80;;;;;;5094970;28;19908;-55
2022/03/21 13:55:03;;;;;;;;;;;20.40;50.60;;;;;;5094147;28;19938;-56
2022/03/21 13:57:29;;;;;;;;;;;20.70;54.70;;;;;;5094341;28;20003;-56
2022/03/21 13:59:59;;;;;;;;;;;21.00;52.50;;;;;;5094711;28;19917;-55
2022/03/21 14:02:24;;;;;;;;;;;21.10;50.60;;;;;;5094206;28;19908;-55
2022/03/21 14:04:53;;;;;;;;;;;21.10;50.10;;;;;;5094607;28;19994;-56
2022/03/21 14:07:18;;;;;;;;;;;21.00;46.00;;;;;;5094672;28;19915;-56
2022/03/21 14:09:50;;;;;;;;;;;21.00;48.60;;;;;;5094194;28;19908;-56
2022/03/21 14:12:16;;;;;;;;;;;21.00;48.60;;;;;;5094481;28;19999;-55
2022/03/21 14:14:41;;;;;;;;;;;20.90;48.30;;;;;;5094447;28;20011;-56
2022/03/21 14:17:06;;;;;;;;;;;20.70;50.50;;;;;;5093724;28;19931;-56
2022/03/21 14:19:34;;;;;;;;;;;20.60;53.80;;;;;;5094291;28;19908;-56
2022/03/21 14:22:00;;;;;;;;;;;20.70;50.70;;;;;;5094275;28;19908;-56
2022/03/21 14:24:25;;;;;;;;;;;20.90;50.70;;;;;;5093692;28;19977;-55
2022/03/21 14:26:51;;;;;;;;;;;21.30;53.50;;;;;;5093565;28;19908;-56
2022/03/21 14:29:18;;;;;;;;;;;21.00;47.20;;;;;;5093999;28;19912;-55
2022/03/21 14:31:44;;;;;;;;;;;20.90;49.50;;;;;;5093257;28;19924;-56
2022/03/21 14:34:14;;;;;;;;;;;20.70;47.90;;;;;;5093884;28;19923;-56
2022/03/21 14:36:47;;;;;;;;;;;20.90;48.30;;;;;;5093187;28;22358;-56
2022/03/21 14:39:13;;;;;;;;;;;21.30;53.50;;;;;;5093458;28;20003;-56
2022/03/21 14:41:39;;;;;;;;;;;21.70;52.40;;;;;;5094034;28;19962;-56
2022/03/21 14:44:05;;;;;;;;;;;21.90;45.50;;;;;;5093378;28;19912;-56
2022/03/21 14:46:30;;;;;;;;;;;22.10;44.60;;;;;;5094019;28;19961;-56
2022/03/21 14:48:56;;;;;;;;;;;22.50;50.40;;;;;;5093748;28;19908;-56